• Join FlightAware (Why Join?)
  • Login
  • US Flag 
01:23AM EDT


 

Airport Tracker/Info


-or-


 

Live Flight TrackerFlight Track Log ✈ SLI2166 ✈ 22-Aug-2013 ✈ MMLP / LAP - KLAX

Flight Track Log - Related Links

Times and Time Zones

All times are in EDT time to prevent confusion due to time zone crossing. See the SLI2166 flight status page for this flight to view local times or setup timezone preferences in your user account.

Time Position Orientation Groundspeed Altitude Reporting Facility
EDT Latitude Longitude Course Direction KTS MPH feet Rate Location/Type
02:09PM 24.9817 -111.0299 326° Northwest  Level Estimated
02:10PM 25.0573 -111.0859 326° Northwest  Level Estimated
02:11PM 25.1329 -111.1421 326° Northwest  Level Estimated
02:12PM 25.2085 -111.1983 326° Northwest  Level Estimated
02:13PM 25.2840 -111.2545 326° Northwest  Level Estimated
02:14PM 25.3596 -111.3109 326° Northwest  Level Estimated
02:15PM 25.4351 -111.3673 326° Northwest  Level Estimated
02:16PM 25.5106 -111.4238 326° Northwest  Level Estimated
02:17PM 25.5860 -111.4803 326° Northwest  Level Estimated
02:18PM 25.6615 -111.5369 326° Northwest  Level Estimated
02:19PM 25.7369 -111.5936 326° Northwest  Level Estimated
02:20PM 25.8123 -111.6504 326° Northwest  Level Estimated
02:21PM 25.8877 -111.7072 326° Northwest  Level Estimated
02:22PM 25.9631 -111.7641 326° Northwest  Level Estimated
02:23PM 26.0384 -111.8211 326° Northwest  Level Estimated
02:24PM 26.1137 -111.8782 326° Northwest  Level Estimated
02:25PM 26.1890 -111.9353 326° Northwest  Level Estimated
02:26PM 26.2642 -111.9925 326° Northwest  Level Estimated
02:27PM 26.3395 -112.0498 326° Northwest  Level Estimated
02:28PM 26.4147 -112.1071 326° Northwest  Level Estimated
02:29PM 26.4899 -112.1645 326° Northwest  Level Estimated
02:30PM 26.5651 -112.2220 326° Northwest  Level Estimated
02:31PM 26.6402 -112.2796 326° Northwest  Level Estimated
02:32PM 26.7154 -112.3373 326° Northwest  Level Estimated
02:33PM 26.7905 -112.3950 326° Northwest  Level Estimated
02:34PM 26.8656 -112.4528 326° Northwest  Level Estimated
02:35PM 26.9406 -112.5107 325° Northwest  Level Estimated
02:36PM 27.0157 -112.5686 325° Northwest  Level Estimated
02:37PM 27.0907 -112.6267 325° Northwest  Level Estimated
02:38PM 27.1657 -112.6848 325° Northwest  Level Estimated
02:39PM 27.2406 -112.7430 325° Northwest  Level Estimated
02:40PM 27.3156 -112.8012 325° Northwest  Level Estimated
02:41PM 27.3905 -112.8596 325° Northwest  Level Estimated
02:42PM 27.4654 -112.9180 325° Northwest  Level Estimated
02:43PM 27.5402 -112.9765 325° Northwest  Level Estimated
02:44PM 27.6151 -113.0351 325° Northwest  Level Estimated
02:45PM 27.6899 -113.0938 325° Northwest  Level Estimated
02:46PM 27.7647 -113.1525 325° Northwest  Level Estimated
02:47PM 27.8395 -113.2114 325° Northwest  Level Estimated
02:48PM 27.9142 -113.2703 325° Northwest  Level Estimated
02:49PM 27.9889 -113.3293 325° Northwest  Level Estimated
02:50PM 28.0636 -113.3884 325° Northwest  Level Estimated
02:51PM 28.1383 -113.4475 325° Northwest  Level Estimated
02:52PM 28.2129 -113.5067 325° Northwest  Level Estimated
02:53PM 28.2875 -113.5661 325° Northwest  Level Estimated
02:54PM 28.3621 -113.6255 325° Northwest  Level Estimated
02:55PM 28.4367 -113.6850 325° Northwest  Level Estimated
02:56PM 28.5112 -113.7445 325° Northwest  Level Estimated
02:57PM 28.5858 -113.8042 325° Northwest  Level Estimated
02:58PM 28.6602 -113.8639 325° Northwest  Level Estimated
02:59PM 28.7347 -113.9237 325° Northwest  Level Estimated
03:00PM 28.8091 -113.9836 325° Northwest  Level Estimated
03:01PM 28.8835 -114.0436 325° Northwest  Level Estimated
03:02PM 28.9579 -114.1037 325° Northwest  Level Estimated
03:03PM 29.0323 -114.1639 325° Northwest  Level Estimated
03:04PM 29.1066 -114.2241 325° Northwest  Level Estimated
03:05PM 29.1809 -114.2845 325° Northwest  Level Estimated
03:06PM 29.2552 -114.3449 325° Northwest  Level Estimated
03:07PM 29.3294 -114.4054 325° Northwest  Level Estimated
03:08PM 29.4036 -114.4660 325° Northwest  Level Estimated
03:09PM 29.4778 -114.5267 325° Northwest  Level Estimated
03:10PM 29.5520 -114.5875 325° Northwest  Level Estimated
03:11PM 29.6261 -114.6484 324° Northwest  Level Estimated
03:12PM 29.7002 -114.7093 324° Northwest  Level Estimated
03:13PM 29.7743 -114.7704 324° Northwest  Level Estimated
03:14PM 29.8484 -114.8315 324° Northwest  Level Estimated
03:15PM 29.9224 -114.8928 324° Northwest  Level Estimated
03:16PM 29.9964 -114.9541 324° Northwest  Level Estimated
03:17PM 30.0704 -115.0155 324° Northwest  Level Estimated
03:18PM 30.1443 -115.0770 324° Northwest  Level Estimated
03:18PM 32.2786 -115.0297 324° Northwest 454 522 40,000  Level Los Angeles Center
03:19PM 30.2182 -115.1386 324° Northwest  Level Estimated
03:19PM 32.3681 -115.1253 318° Northwest 445 512 40,000  Level Los Angeles Center
03:20PM 30.2921 -115.2003 324° Northwest  Level Estimated
03:20PM 32.4331 -115.2478 302° West 439 505 40,000  Level Los Angeles Center
03:21PM 30.3659 -115.2621 324° Northwest  Level Estimated
03:21PM 32.5061 -115.3797 303° West 435 501 40,000  Level Los Angeles Center
03:22PM 30.4398 -115.3240 324° Northwest  Level Estimated
03:22PM 32.5694 -115.4997 302° West 432 497 40,000  Level Los Angeles Center
03:23PM 30.5135 -115.3859 324° Northwest  Level Estimated
03:24PM 30.5873 -115.4480 324° Northwest  Level Estimated
03:24PM 32.6978 -115.7414 302° West 433 498 39,800  Level Los Angeles Center
03:25PM 32.7633 -115.8636 303° West 438 504 37,600 -2,400 Descending Los Angeles Center
03:26PM 32.8422 -116.0119 302° West 446 513 34,800 -2,520 Descending Los Angeles Center
03:27PM 32.9081 -116.1375 302° West 451 519 32,400 -2,100 Descending Los Angeles Center
03:28PM 32.9775 -116.2703 302° West 451 519 30,500 -1,860 Descending Los Angeles Center
03:29PM 33.0467 -116.4003 302° West 466 536 28,600 -1,920 Descending Los Angeles Center
03:30PM 33.1172 -116.5403 301° West 454 522 26,600 -2,160 Descending Los Angeles Center
03:32PM 33.1675 -116.8067 283° West 417 480 22,000 -2,340 Descending Los Angeles Center
03:33PM 33.1825 -116.9361 278° West 402 463 19,400 -2,460 Descending Los Angeles Center
03:34PM 33.1983 -117.0603 279° West 386 444 16,900 -2,700 Descending Los Angeles Center
03:35PM 33.2167 -117.2000 279° West 364 419 14,100 -2,520 Descending Southern California TRACON
03:36PM 33.2333 -117.3167 280° West 385 443 12,000 -1,260 Descending Southern California TRACON
03:37PM 33.2333 -117.4333 270° West 369 425 11,600 -540 Descending Southern California TRACON
03:38PM 33.2500 -117.5500 280° West 345 397 11,000 -600 Descending Southern California TRACON
03:39PM 33.2833 -117.6500 292° West 357 411 10,400 -540 Descending Southern California TRACON
03:40PM 33.3500 -117.7500 309° West 353 406 10,000 -240 Descending Southern California TRACON
03:41PM 33.4000 -117.8333 306° West 317 365 10,000  Level Southern California TRACON
03:42PM 33.4500 -117.9167 306° West 305 351 10,000 -660 Level Southern California TRACON
03:43PM 33.5333 -117.9667 333° Northwest 309 356 8,700 -1,440 Descending Southern California TRACON
03:44PM 33.6000 -117.9833 348° North 294 338 7,200 -900 Descending Southern California TRACON
03:45PM 33.6833 -118.0167 342° North 289 333 7,000 -120 Descending Southern California TRACON
03:46PM 33.7500 -118.0500 337° Northwest 282 325 7,000 -300 Level Southern California TRACON
03:47PM 33.8333 -118.0667 351° North 252 290 6,500 -660 Descending Southern California TRACON
03:48PM 33.8833 -118.0833 345° North 227 261 5,700 -960 Descending Southern California TRACON
03:49PM 33.9167 -118.1333 309° West 218 251 4,700 -1,260 Descending Southern California TRACON
03:50PM 33.9283 -118.1822 286° West 217 250 3,600 -1,380 Descending Los Angeles Center
03:51PM 33.9428 -118.2453 285° West 208 239 2,400 -1,080 Descending Los Angeles Center
03:52PM 33.9464 -118.3025 274° West 184 212 1,400 -780 Descending Los Angeles Center
03:53PM 33.9417 -118.3447 262° West 149 171 800 -540 Descending Los Angeles Center
03:54PM 33.9692 -118.4011 300° West 171 197 200 -480 Descending Los Angeles Center